sensor_id;sensor_type;location;lat;lon;timestamp;P1;durP1;ratioP1;P2;durP2;ratioP2
17390;SDS011;8813;54.444;18.446;2023-03-13T00:00:31;23.83;;;11.47;;
17390;SDS011;8813;54.444;18.446;2023-03-13T00:03:00;21.47;;;11.07;;
17390;SDS011;8813;54.444;18.446;2023-03-13T00:05:27;18.80;;;9.80;;
17390;SDS011;8813;54.444;18.446;2023-03-13T00:07:55;25.20;;;10.37;;
17390;SDS011;8813;54.444;18.446;2023-03-13T00:10:21;21.13;;;10.77;;
17390;SDS011;8813;54.444;18.446;2023-03-13T00:12:50;15.80;;;9.90;;
17390;SDS011;8813;54.444;18.446;2023-03-13T00:15:17;15.67;;;9.43;;
17390;SDS011;8813;54.444;18.446;2023-03-13T00:17:43;17.83;;;9.50;;
17390;SDS011;8813;54.444;18.446;2023-03-13T00:20:11;19.33;;;9.40;;
17390;SDS011;8813;54.444;18.446;2023-03-13T00:22:38;18.33;;;10.40;;
17390;SDS011;8813;54.444;18.446;2023-03-13T00:25:05;18.90;;;10.03;;
17390;SDS011;8813;54.444;18.446;2023-03-13T00:27:32;17.67;;;9.60;;
17390;SDS011;8813;54.444;18.446;2023-03-13T00:30:01;20.97;;;10.40;;
17390;SDS011;8813;54.444;18.446;2023-03-13T00:32:29;25.27;;;11.00;;
17390;SDS011;8813;54.444;18.446;2023-03-13T00:34:56;19.53;;;9.33;;
17390;SDS011;8813;54.444;18.446;2023-03-13T00:37:23;19.77;;;11.67;;
17390;SDS011;8813;54.444;18.446;2023-03-13T00:39:49;16.50;;;9.97;;
17390;SDS011;8813;54.444;18.446;2023-03-13T00:42:16;17.80;;;10.00;;
17390;SDS011;8813;54.444;18.446;2023-03-13T00:44:43;19.00;;;9.90;;
17390;SDS011;8813;54.444;18.446;2023-03-13T00:47:12;21.37;;;10.23;;
17390;SDS011;8813;54.444;18.446;2023-03-13T00:49:39;16.43;;;9.67;;
17390;SDS011;8813;54.444;18.446;2023-03-13T00:52:06;16.77;;;9.33;;
17390;SDS011;8813;54.444;18.446;2023-03-13T00:54:32;16.27;;;9.40;;
17390;SDS011;8813;54.444;18.446;2023-03-13T00:56:59;16.17;;;8.97;;
17390;SDS011;8813;54.444;18.446;2023-03-13T00:59:26;13.50;;;8.23;;
17390;SDS011;8813;54.444;18.446;2023-03-13T01:01:53;15.50;;;8.97;;
17390;SDS011;8813;54.444;18.446;2023-03-13T01:04:21;18.07;;;9.20;;
17390;SDS011;8813;54.444;18.446;2023-03-13T01:06:48;12.33;;;8.23;;
17390;SDS011;8813;54.444;18.446;2023-03-13T01:09:15;13.10;;;7.90;;
17390;SDS011;8813;54.444;18.446;2023-03-13T01:11:43;11.73;;;7.60;;
17390;SDS011;8813;54.444;18.446;2023-03-13T01:14:12;13.73;;;7.87;;
17390;SDS011;8813;54.444;18.446;2023-03-13T01:16:40;12.20;;;8.00;;
17390;SDS011;8813;54.444;18.446;2023-03-13T01:19:08;12.77;;;7.57;;
17390;SDS011;8813;54.444;18.446;2023-03-13T01:21:38;12.80;;;7.97;;
17390;SDS011;8813;54.444;18.446;2023-03-13T01:24:06;15.77;;;7.57;;
17390;SDS011;8813;54.444;18.446;2023-03-13T01:26:33;13.87;;;7.77;;
17390;SDS011;8813;54.444;18.446;2023-03-13T01:29:00;11.73;;;7.33;;
17390;SDS011;8813;54.444;18.446;2023-03-13T01:31:28;14.33;;;7.77;;
17390;SDS011;8813;54.444;18.446;2023-03-13T01:33:56;15.60;;;8.23;;
17390;SDS011;8813;54.444;18.446;2023-03-13T01:36:24;14.10;;;7.83;;
17390;SDS011;8813;54.444;18.446;2023-03-13T01:38:53;10.40;;;8.07;;
17390;SDS011;8813;54.444;18.446;2023-03-13T01:41:21;11.00;;;7.60;;
17390;SDS011;8813;54.444;18.446;2023-03-13T01:43:49;16.87;;;8.47;;
17390;SDS011;8813;54.444;18.446;2023-03-13T01:46:16;12.87;;;8.37;;
17390;SDS011;8813;54.444;18.446;2023-03-13T01:48:46;12.77;;;7.33;;
17390;SDS011;8813;54.444;18.446;2023-03-13T01:51:16;11.33;;;7.87;;
17390;SDS011;8813;54.444;18.446;2023-03-13T01:53:47;11.57;;;7.20;;
17390;SDS011;8813;54.444;18.446;2023-03-13T01:56:18;11.77;;;7.27;;
17390;SDS011;8813;54.444;18.446;2023-03-13T01:58:47;11.47;;;7.10;;
17390;SDS011;8813;54.444;18.446;2023-03-13T02:01:15;16.57;;;8.07;;
17390;SDS011;8813;54.444;18.446;2023-03-13T02:03:43;11.70;;;7.20;;
17390;SDS011;8813;54.444;18.446;2023-03-13T02:06:10;13.03;;;7.70;;
17390;SDS011;8813;54.444;18.446;2023-03-13T02:08:39;10.50;;;7.20;;
17390;SDS011;8813;54.444;18.446;2023-03-13T02:11:11;9.10;;;7.43;;
17390;SDS011;8813;54.444;18.446;2023-03-13T02:13:43;11.77;;;7.67;;
17390;SDS011;8813;54.444;18.446;2023-03-13T02:16:10;11.70;;;7.77;;
17390;SDS011;8813;54.444;18.446;2023-03-13T02:18:37;13.13;;;7.10;;
17390;SDS011;8813;54.444;18.446;2023-03-13T02:21:09;13.97;;;7.73;;
17390;SDS011;8813;54.444;18.446;2023-03-13T02:23:40;11.23;;;6.93;;
17390;SDS011;8813;54.444;18.446;2023-03-13T02:26:11;10.47;;;7.03;;
17390;SDS011;8813;54.444;18.446;2023-03-13T02:28:38;9.80;;;6.80;;
17390;SDS011;8813;54.444;18.446;2023-03-13T02:31:06;12.23;;;7.37;;
17390;SDS011;8813;54.444;18.446;2023-03-13T02:33:34;9.33;;;7.20;;
17390;SDS011;8813;54.444;18.446;2023-03-13T02:36:04;8.03;;;6.40;;
17390;SDS011;8813;54.444;18.446;2023-03-13T02:38:34;10.67;;;7.50;;
17390;SDS011;8813;54.444;18.446;2023-03-13T02:41:03;10.50;;;6.67;;
17390;SDS011;8813;54.444;18.446;2023-03-13T02:43:33;12.37;;;6.63;;
17390;SDS011;8813;54.444;18.446;2023-03-13T02:46:03;9.67;;;7.10;;
17390;SDS011;8813;54.444;18.446;2023-03-13T02:48:32;12.87;;;7.30;;
17390;SDS011;8813;54.444;18.446;2023-03-13T02:51:01;10.30;;;7.40;;
17390;SDS011;8813;54.444;18.446;2023-03-13T02:53:29;12.83;;;7.07;;
17390;SDS011;8813;54.444;18.446;2023-03-13T02:55:56;10.63;;;7.57;;
17390;SDS011;8813;54.444;18.446;2023-03-13T02:58:23;11.97;;;7.40;;
17390;SDS011;8813;54.444;18.446;2023-03-13T03:00:52;10.07;;;7.57;;
17390;SDS011;8813;54.444;18.446;2023-03-13T03:03:19;14.03;;;7.53;;
17390;SDS011;8813;54.444;18.446;2023-03-13T03:05:46;13.93;;;7.23;;
17390;SDS011;8813;54.444;18.446;2023-03-13T03:08:13;10.57;;;7.10;;
17390;SDS011;8813;54.444;18.446;2023-03-13T03:10:40;12.60;;;7.80;;
17390;SDS011;8813;54.444;18.446;2023-03-13T03:13:07;11.83;;;7.43;;
17390;SDS011;8813;54.444;18.446;2023-03-13T03:15:34;9.47;;;6.97;;
17390;SDS011;8813;54.444;18.446;2023-03-13T03:18:03;11.83;;;7.37;;
17390;SDS011;8813;54.444;18.446;2023-03-13T03:20:29;12.07;;;7.60;;
17390;SDS011;8813;54.444;18.446;2023-03-13T03:22:56;13.53;;;7.73;;
17390;SDS011;8813;54.444;18.446;2023-03-13T03:25:23;9.20;;;7.00;;
17390;SDS011;8813;54.444;18.446;2023-03-13T03:27:50;12.20;;;7.87;;
17390;SDS011;8813;54.444;18.446;2023-03-13T03:30:17;10.07;;;7.60;;
17390;SDS011;8813;54.444;18.446;2023-03-13T03:32:44;12.57;;;8.20;;
17390;SDS011;8813;54.444;18.446;2023-03-13T03:35:12;11.63;;;8.10;;
17390;SDS011;8813;54.444;18.446;2023-03-13T03:37:39;10.27;;;7.77;;
17390;SDS011;8813;54.444;18.446;2023-03-13T03:40:07;12.40;;;7.73;;
17390;SDS011;8813;54.444;18.446;2023-03-13T03:42:35;10.27;;;7.60;;
17390;SDS011;8813;54.444;18.446;2023-03-13T03:45:02;10.67;;;7.53;;
17390;SDS011;8813;54.444;18.446;2023-03-13T03:47:29;14.03;;;8.67;;
17390;SDS011;8813;54.444;18.446;2023-03-13T03:49:56;12.10;;;7.77;;
17390;SDS011;8813;54.444;18.446;2023-03-13T03:52:25;12.90;;;8.50;;
17390;SDS011;8813;54.444;18.446;2023-03-13T03:54:52;12.40;;;8.20;;
17390;SDS011;8813;54.444;18.446;2023-03-13T03:57:18;13.97;;;9.83;;
17390;SDS011;8813;54.444;18.446;2023-03-13T03:59:45;17.43;;;9.07;;
17390;SDS011;8813;54.444;18.446;2023-03-13T04:02:12;11.30;;;9.20;;
17390;SDS011;8813;54.444;18.446;2023-03-13T04:04:39;18.03;;;10.73;;
17390;SDS011;8813;54.444;18.446;2023-03-13T04:07:06;15.37;;;9.47;;
17390;SDS011;8813;54.444;18.446;2023-03-13T04:09:37;16.97;;;9.83;;
17390;SDS011;8813;54.444;18.446;2023-03-13T04:12:04;14.73;;;9.63;;
17390;SDS011;8813;54.444;18.446;2023-03-13T04:14:31;16.97;;;10.43;;
17390;SDS011;8813;54.444;18.446;2023-03-13T04:16:58;18.90;;;9.87;;
17390;SDS011;8813;54.444;18.446;2023-03-13T04:19:25;12.67;;;10.37;;
17390;SDS011;8813;54.444;18.446;2023-03-13T04:21:52;16.23;;;9.87;;
17390;SDS011;8813;54.444;18.446;2023-03-13T04:24:19;14.37;;;10.30;;
17390;SDS011;8813;54.444;18.446;2023-03-13T04:26:47;24.93;;;10.87;;
17390;SDS011;8813;54.444;18.446;2023-03-13T04:29:14;20.73;;;11.47;;
17390;SDS011;8813;54.444;18.446;2023-03-13T04:31:41;16.20;;;10.03;;
17390;SDS011;8813;54.444;18.446;2023-03-13T04:34:07;21.93;;;11.53;;
17390;SDS011;8813;54.444;18.446;2023-03-13T04:36:34;18.10;;;11.43;;
17390;SDS011;8813;54.444;18.446;2023-03-13T04:39:01;17.67;;;11.47;;
17390;SDS011;8813;54.444;18.446;2023-03-13T04:41:28;17.57;;;11.33;;
17390;SDS011;8813;54.444;18.446;2023-03-13T04:43:57;18.40;;;12.63;;
17390;SDS011;8813;54.444;18.446;2023-03-13T04:46:24;19.93;;;11.93;;
17390;SDS011;8813;54.444;18.446;2023-03-13T04:48:50;16.83;;;11.00;;
17390;SDS011;8813;54.444;18.446;2023-03-13T04:51:17;18.67;;;11.40;;
17390;SDS011;8813;54.444;18.446;2023-03-13T04:53:44;22.80;;;12.10;;
17390;SDS011;8813;54.444;18.446;2023-03-13T04:56:12;17.93;;;11.43;;
17390;SDS011;8813;54.444;18.446;2023-03-13T04:58:43;21.73;;;11.50;;
17390;SDS011;8813;54.444;18.446;2023-03-13T05:01:11;19.60;;;11.43;;
17390;SDS011;8813;54.444;18.446;2023-03-13T05:03:38;18.90;;;12.07;;
17390;SDS011;8813;54.444;18.446;2023-03-13T05:06:05;18.07;;;12.17;;
17390;SDS011;8813;54.444;18.446;2023-03-13T05:08:35;18.53;;;11.13;;
17390;SDS011;8813;54.444;18.446;2023-03-13T05:11:02;18.03;;;12.03;;
17390;SDS011;8813;54.444;18.446;2023-03-13T05:13:29;17.00;;;12.63;;
17390;SDS011;8813;54.444;18.446;2023-03-13T05:15:56;17.10;;;11.37;;
17390;SDS011;8813;54.444;18.446;2023-03-13T05:18:24;19.03;;;12.87;;
17390;SDS011;8813;54.444;18.446;2023-03-13T05:20:51;19.40;;;12.10;;
17390;SDS011;8813;54.444;18.446;2023-03-13T05:23:18;20.40;;;11.90;;
17390;SDS011;8813;54.444;18.446;2023-03-13T05:25:45;20.47;;;12.37;;
17390;SDS011;8813;54.444;18.446;2023-03-13T05:28:12;23.03;;;12.33;;
17390;SDS011;8813;54.444;18.446;2023-03-13T05:30:39;18.00;;;12.83;;
17390;SDS011;8813;54.444;18.446;2023-03-13T05:33:06;21.70;;;12.00;;
17390;SDS011;8813;54.444;18.446;2023-03-13T05:35:34;25.07;;;13.87;;
17390;SDS011;8813;54.444;18.446;2023-03-13T05:38:01;21.67;;;12.77;;
17390;SDS011;8813;54.444;18.446;2023-03-13T05:40:28;21.33;;;13.17;;
17390;SDS011;8813;54.444;18.446;2023-03-13T05:42:55;25.27;;;13.53;;
17390;SDS011;8813;54.444;18.446;2023-03-13T05:45:22;20.87;;;13.60;;
17390;SDS011;8813;54.444;18.446;2023-03-13T05:47:49;21.73;;;13.83;;
17390;SDS011;8813;54.444;18.446;2023-03-13T05:50:16;23.60;;;14.47;;
17390;SDS011;8813;54.444;18.446;2023-03-13T05:52:45;23.20;;;13.80;;
17390;SDS011;8813;54.444;18.446;2023-03-13T05:55:12;25.77;;;13.77;;
17390;SDS011;8813;54.444;18.446;2023-03-13T05:57:42;24.13;;;14.23;;
17390;SDS011;8813;54.444;18.446;2023-03-13T06:00:11;22.50;;;14.53;;
17390;SDS011;8813;54.444;18.446;2023-03-13T06:02:39;22.37;;;14.83;;
17390;SDS011;8813;54.444;18.446;2023-03-13T06:05:06;25.57;;;15.47;;
17390;SDS011;8813;54.444;18.446;2023-03-13T06:07:34;23.53;;;14.13;;
17390;SDS011;8813;54.444;18.446;2023-03-13T06:10:03;26.90;;;14.80;;
17390;SDS011;8813;54.444;18.446;2023-03-13T06:12:31;22.93;;;14.70;;
17390;SDS011;8813;54.444;18.446;2023-03-13T06:14:58;25.97;;;14.90;;
17390;SDS011;8813;54.444;18.446;2023-03-13T06:17:25;22.73;;;14.00;;
17390;SDS011;8813;54.444;18.446;2023-03-13T06:19:52;23.03;;;14.80;;
17390;SDS011;8813;54.444;18.446;2023-03-13T06:22:19;33.27;;;15.33;;
17390;SDS011;8813;54.444;18.446;2023-03-13T06:24:46;30.60;;;15.80;;
17390;SDS011;8813;54.444;18.446;2023-03-13T06:27:15;35.17;;;16.43;;
17390;SDS011;8813;54.444;18.446;2023-03-13T06:29:44;28.83;;;14.83;;
17390;SDS011;8813;54.444;18.446;2023-03-13T06:32:10;27.50;;;16.10;;
17390;SDS011;8813;54.444;18.446;2023-03-13T06:34:38;28.83;;;16.10;;
17390;SDS011;8813;54.444;18.446;2023-03-13T06:37:05;30.07;;;16.80;;
17390;SDS011;8813;54.444;18.446;2023-03-13T06:39:32;32.73;;;16.37;;
17390;SDS011;8813;54.444;18.446;2023-03-13T06:41:59;33.70;;;17.50;;
17390;SDS011;8813;54.444;18.446;2023-03-13T06:44:27;35.03;;;15.83;;
17390;SDS011;8813;54.444;18.446;2023-03-13T06:46:54;26.23;;;16.17;;
17390;SDS011;8813;54.444;18.446;2023-03-13T06:49:21;27.00;;;17.03;;
17390;SDS011;8813;54.444;18.446;2023-03-13T06:51:48;32.13;;;16.80;;
17390;SDS011;8813;54.444;18.446;2023-03-13T06:54:14;34.87;;;17.60;;
17390;SDS011;8813;54.444;18.446;2023-03-13T06:56:41;39.73;;;17.87;;
17390;SDS011;8813;54.444;18.446;2023-03-13T06:59:08;33.03;;;16.57;;
17390;SDS011;8813;54.444;18.446;2023-03-13T07:01:36;31.70;;;17.20;;
17390;SDS011;8813;54.444;18.446;2023-03-13T07:04:04;27.97;;;16.07;;
17390;SDS011;8813;54.444;18.446;2023-03-13T07:06:31;27.10;;;16.30;;
17390;SDS011;8813;54.444;18.446;2023-03-13T07:08:58;26.60;;;15.77;;
17390;SDS011;8813;54.444;18.446;2023-03-13T07:11:24;25.83;;;15.50;;
17390;SDS011;8813;54.444;18.446;2023-03-13T07:13:53;26.37;;;15.67;;
17390;SDS011;8813;54.444;18.446;2023-03-13T07:16:20;25.00;;;16.30;;
17390;SDS011;8813;54.444;18.446;2023-03-13T07:18:49;24.43;;;15.53;;
17390;SDS011;8813;54.444;18.446;2023-03-13T07:21:16;25.87;;;14.67;;
17390;SDS011;8813;54.444;18.446;2023-03-13T07:23:43;27.83;;;15.87;;
17390;SDS011;8813;54.444;18.446;2023-03-13T07:26:11;23.13;;;13.90;;
17390;SDS011;8813;54.444;18.446;2023-03-13T07:28:39;22.20;;;13.23;;
17390;SDS011;8813;54.444;18.446;2023-03-13T07:31:07;22.27;;;13.33;;
17390;SDS011;8813;54.444;18.446;2023-03-13T07:33:36;23.53;;;13.63;;
17390;SDS011;8813;54.444;18.446;2023-03-13T07:36:05;21.47;;;13.67;;
17390;SDS011;8813;54.444;18.446;2023-03-13T07:38:35;19.83;;;14.10;;
17390;SDS011;8813;54.444;18.446;2023-03-13T07:41:02;19.10;;;12.97;;
17390;SDS011;8813;54.444;18.446;2023-03-13T07:43:29;17.77;;;11.80;;
17390;SDS011;8813;54.444;18.446;2023-03-13T07:45:57;19.77;;;13.53;;
17390;SDS011;8813;54.444;18.446;2023-03-13T07:48:26;17.60;;;12.43;;
17390;SDS011;8813;54.444;18.446;2023-03-13T07:50:54;21.30;;;13.40;;
17390;SDS011;8813;54.444;18.446;2023-03-13T07:53:23;20.73;;;13.13;;
17390;SDS011;8813;54.444;18.446;2023-03-13T07:55:55;19.47;;;12.83;;
17390;SDS011;8813;54.444;18.446;2023-03-13T07:58:23;19.43;;;13.43;;
17390;SDS011;8813;54.444;18.446;2023-03-13T08:00:50;18.37;;;12.97;;
17390;SDS011;8813;54.444;18.446;2023-03-13T08:03:17;19.23;;;13.37;;
17390;SDS011;8813;54.444;18.446;2023-03-13T08:05:44;17.43;;;13.00;;
17390;SDS011;8813;54.444;18.446;2023-03-13T08:08:11;18.67;;;13.03;;
17390;SDS011;8813;54.444;18.446;2023-03-13T08:10:42;20.27;;;13.20;;
17390;SDS011;8813;54.444;18.446;2023-03-13T08:13:09;18.60;;;12.53;;
17390;SDS011;8813;54.444;18.446;2023-03-13T08:15:39;19.70;;;13.40;;
17390;SDS011;8813;54.444;18.446;2023-03-13T08:18:06;20.70;;;13.27;;
17390;SDS011;8813;54.444;18.446;2023-03-13T08:20:33;20.23;;;13.60;;
17390;SDS011;8813;54.444;18.446;2023-03-13T08:23:00;24.93;;;14.10;;
17390;SDS011;8813;54.444;18.446;2023-03-13T08:25:27;24.23;;;14.17;;
17390;SDS011;8813;54.444;18.446;2023-03-13T08:27:55;21.07;;;14.23;;
17390;SDS011;8813;54.444;18.446;2023-03-13T08:30:22;19.37;;;13.20;;
17390;SDS011;8813;54.444;18.446;2023-03-13T08:32:49;20.50;;;15.70;;
17390;SDS011;8813;54.444;18.446;2023-03-13T08:35:16;20.70;;;14.00;;
17390;SDS011;8813;54.444;18.446;2023-03-13T08:37:43;21.33;;;13.97;;
17390;SDS011;8813;54.444;18.446;2023-03-13T08:40:10;25.97;;;15.23;;
17390;SDS011;8813;54.444;18.446;2023-03-13T08:42:37;22.30;;;14.50;;
17390;SDS011;8813;54.444;18.446;2023-03-13T08:45:07;25.90;;;15.17;;
17390;SDS011;8813;54.444;18.446;2023-03-13T08:47:34;24.33;;;16.10;;
17390;SDS011;8813;54.444;18.446;2023-03-13T08:50:01;23.20;;;15.80;;
17390;SDS011;8813;54.444;18.446;2023-03-13T08:52:29;28.57;;;16.00;;
17390;SDS011;8813;54.444;18.446;2023-03-13T08:54:56;28.23;;;16.87;;
17390;SDS011;8813;54.444;18.446;2023-03-13T08:57:23;23.90;;;16.43;;
17390;SDS011;8813;54.444;18.446;2023-03-13T08:59:50;26.07;;;17.97;;
17390;SDS011;8813;54.444;18.446;2023-03-13T09:02:18;27.23;;;16.33;;
17390;SDS011;8813;54.444;18.446;2023-03-13T09:04:46;29.07;;;17.10;;
17390;SDS011;8813;54.444;18.446;2023-03-13T09:07:14;27.40;;;16.43;;
17390;SDS011;8813;54.444;18.446;2023-03-13T09:09:42;28.67;;;16.70;;
17390;SDS011;8813;54.444;18.446;2023-03-13T09:12:09;29.37;;;17.10;;
17390;SDS011;8813;54.444;18.446;2023-03-13T09:14:36;28.03;;;18.03;;
17390;SDS011;8813;54.444;18.446;2023-03-13T09:17:03;27.63;;;17.00;;
17390;SDS011;8813;54.444;18.446;2023-03-13T09:19:32;30.63;;;17.97;;
17390;SDS011;8813;54.444;18.446;2023-03-13T09:21:59;27.63;;;17.33;;
17390;SDS011;8813;54.444;18.446;2023-03-13T09:24:26;28.97;;;16.90;;
17390;SDS011;8813;54.444;18.446;2023-03-13T09:26:53;28.23;;;18.00;;
17390;SDS011;8813;54.444;18.446;2023-03-13T09:29:20;27.07;;;17.13;;
17390;SDS011;8813;54.444;18.446;2023-03-13T09:31:47;26.27;;;16.90;;
17390;SDS011;8813;54.444;18.446;2023-03-13T09:34:14;29.67;;;17.13;;
17390;SDS011;8813;54.444;18.446;2023-03-13T09:36:42;25.20;;;16.80;;
17390;SDS011;8813;54.444;18.446;2023-03-13T09:39:09;24.40;;;16.80;;
17390;SDS011;8813;54.444;18.446;2023-03-13T09:41:38;22.90;;;17.63;;
17390;SDS011;8813;54.444;18.446;2023-03-13T09:44:08;25.53;;;17.30;;
17390;SDS011;8813;54.444;18.446;2023-03-13T09:46:38;24.23;;;17.33;;
17390;SDS011;8813;54.444;18.446;2023-03-13T09:49:11;28.90;;;18.03;;
17390;SDS011;8813;54.444;18.446;2023-03-13T09:51:40;25.90;;;17.30;;
17390;SDS011;8813;54.444;18.446;2023-03-13T09:54:12;24.57;;;17.70;;
17390;SDS011;8813;54.444;18.446;2023-03-13T09:56:49;22.43;;;17.20;;
17390;SDS011;8813;54.444;18.446;2023-03-13T09:59:27;27.93;;;18.00;;
17390;SDS011;8813;54.444;18.446;2023-03-13T10:01:56;23.13;;;17.07;;
17390;SDS011;8813;54.444;18.446;2023-03-13T10:04:28;22.93;;;17.37;;
17390;SDS011;8813;54.444;18.446;2023-03-13T10:06:59;26.67;;;18.10;;
17390;SDS011;8813;54.444;18.446;2023-03-13T10:09:28;21.10;;;16.97;;
17390;SDS011;8813;54.444;18.446;2023-03-13T10:12:02;20.93;;;17.83;;
17390;SDS011;8813;54.444;18.446;2023-03-13T10:14:34;22.53;;;19.23;;
17390;SDS011;8813;54.444;18.446;2023-03-13T10:17:06;19.87;;;17.60;;
17390;SDS011;8813;54.444;18.446;2023-03-13T10:19:39;21.00;;;18.90;;
17390;SDS011;8813;54.444;18.446;2023-03-13T10:22:11;20.27;;;18.27;;
17390;SDS011;8813;54.444;18.446;2023-03-13T10:24:41;20.97;;;18.67;;
17390;SDS011;8813;54.444;18.446;2023-03-13T10:27:13;21.17;;;19.03;;
17390;SDS011;8813;54.444;18.446;2023-03-13T10:29:40;19.43;;;17.63;;
17390;SDS011;8813;54.444;18.446;2023-03-13T10:32:09;21.27;;;19.00;;
17390;SDS011;8813;54.444;18.446;2023-03-13T10:34:47;22.23;;;20.30;;
17390;SDS011;8813;54.444;18.446;2023-03-13T10:37:20;22.97;;;21.00;;
17390;SDS011;8813;54.444;18.446;2023-03-13T10:39:48;23.40;;;21.30;;
17390;SDS011;8813;54.444;18.446;2023-03-13T10:42:18;22.73;;;20.70;;
17390;SDS011;8813;54.444;18.446;2023-03-13T10:44:47;25.27;;;23.00;;
17390;SDS011;8813;54.444;18.446;2023-03-13T10:47:14;23.13;;;21.43;;
17390;SDS011;8813;54.444;18.446;2023-03-13T10:49:45;25.63;;;23.20;;
17390;SDS011;8813;54.444;18.446;2023-03-13T10:52:28;24.93;;;22.83;;
17390;SDS011;8813;54.444;18.446;2023-03-13T10:55:00;27.10;;;24.73;;
17390;SDS011;8813;54.444;18.446;2023-03-13T10:57:28;28.30;;;26.13;;
17390;SDS011;8813;54.444;18.446;2023-03-13T10:59:56;27.17;;;24.87;;
17390;SDS011;8813;54.444;18.446;2023-03-13T11:02:25;27.13;;;24.53;;
17390;SDS011;8813;54.444;18.446;2023-03-13T11:04:53;28.80;;;26.50;;
17390;SDS011;8813;54.444;18.446;2023-03-13T11:07:24;30.83;;;28.33;;
17390;SDS011;8813;54.444;18.446;2023-03-13T11:10:13;30.67;;;28.33;;
17390;SDS011;8813;54.444;18.446;2023-03-13T11:12:44;31.37;;;28.50;;
17390;SDS011;8813;54.444;18.446;2023-03-13T11:15:13;30.83;;;28.37;;
17390;SDS011;8813;54.444;18.446;2023-03-13T11:17:41;30.63;;;28.03;;
17390;SDS011;8813;54.444;18.446;2023-03-13T11:20:13;29.47;;;26.83;;
17390;SDS011;8813;54.444;18.446;2023-03-13T11:22:49;30.60;;;28.20;;
17390;SDS011;8813;54.444;18.446;2023-03-13T11:25:26;29.60;;;27.10;;
17390;SDS011;8813;54.444;18.446;2023-03-13T11:28:01;30.23;;;27.67;;
17390;SDS011;8813;54.444;18.446;2023-03-13T11:30:42;29.00;;;26.43;;
17390;SDS011;8813;54.444;18.446;2023-03-13T11:33:17;29.70;;;27.33;;
17390;SDS011;8813;54.444;18.446;2023-03-13T11:35:52;29.40;;;27.17;;
17390;SDS011;8813;54.444;18.446;2023-03-13T11:38:26;30.07;;;27.73;;
17390;SDS011;8813;54.444;18.446;2023-03-13T11:41:01;30.33;;;27.77;;
17390;SDS011;8813;54.444;18.446;2023-03-13T11:43:39;31.27;;;28.57;;
17390;SDS011;8813;54.444;18.446;2023-03-13T11:46:14;30.97;;;28.43;;
17390;SDS011;8813;54.444;18.446;2023-03-13T11:49:05;32.50;;;29.77;;
17390;SDS011;8813;54.444;18.446;2023-03-13T11:51:45;32.07;;;29.23;;
17390;SDS011;8813;54.444;18.446;2023-03-13T11:54:25;31.53;;;28.77;;
17390;SDS011;8813;54.444;18.446;2023-03-13T11:57:03;32.30;;;29.77;;
17390;SDS011;8813;54.444;18.446;2023-03-13T11:59:34;32.87;;;29.97;;
17390;SDS011;8813;54.444;18.446;2023-03-13T12:02:11;33.20;;;30.40;;
17390;SDS011;8813;54.444;18.446;2023-03-13T12:04:44;32.60;;;30.00;;
17390;SDS011;8813;54.444;18.446;2023-03-13T12:07:15;33.20;;;30.60;;
17390;SDS011;8813;54.444;18.446;2023-03-13T12:09:46;34.70;;;31.93;;
17390;SDS011;8813;54.444;18.446;2023-03-13T12:12:18;34.23;;;31.37;;
17390;SDS011;8813;54.444;18.446;2023-03-13T12:14:50;34.93;;;32.20;;
17390;SDS011;8813;54.444;18.446;2023-03-13T12:17:22;43.70;;;39.47;;
17390;SDS011;8813;54.444;18.446;2023-03-13T12:19:54;36.67;;;33.50;;
17390;SDS011;8813;54.444;18.446;2023-03-13T12:22:25;44.50;;;39.67;;
17390;SDS011;8813;54.444;18.446;2023-03-13T12:24:57;62.80;;;48.40;;
17390;SDS011;8813;54.444;18.446;2023-03-13T12:27:28;50.70;;;45.27;;
17390;SDS011;8813;54.444;18.446;2023-03-13T12:29:57;75.87;;;55.70;;
17390;SDS011;8813;54.444;18.446;2023-03-13T12:32:28;35.92;;;32.60;;
17390;SDS011;8813;54.444;18.446;2023-03-13T12:35:00;38.27;;;34.73;;
17390;SDS011;8813;54.444;18.446;2023-03-13T12:37:33;54.37;;;43.83;;
17390;SDS011;8813;54.444;18.446;2023-03-13T12:40:05;56.10;;;45.23;;
17390;SDS011;8813;54.444;18.446;2023-03-13T12:42:41;36.67;;;33.43;;
17390;SDS011;8813;54.444;18.446;2023-03-13T12:45:13;38.67;;;34.80;;
17390;SDS011;8813;54.444;18.446;2023-03-13T12:47:50;40.53;;;36.87;;
17390;SDS011;8813;54.444;18.446;2023-03-13T12:50:28;34.67;;;31.67;;
17390;SDS011;8813;54.444;18.446;2023-03-13T12:53:09;40.17;;;36.17;;
17390;SDS011;8813;54.444;18.446;2023-03-13T12:56:11;39.13;;;35.28;;
17390;SDS011;8813;54.444;18.446;2023-03-13T12:59:01;42.60;;;38.30;;
17390;SDS011;8813;54.444;18.446;2023-03-13T13:01:30;37.33;;;33.80;;
17390;SDS011;8813;54.444;18.446;2023-03-13T13:03:59;38.27;;;34.73;;
17390;SDS011;8813;54.444;18.446;2023-03-13T13:06:27;39.78;;;36.00;;
17390;SDS011;8813;54.444;18.446;2023-03-13T13:09:06;43.47;;;38.75;;
17390;SDS011;8813;54.444;18.446;2023-03-13T13:11:44;41.67;;;37.55;;
17390;SDS011;8813;54.444;18.446;2023-03-13T13:17:23;35.72;;;32.53;;
17390;SDS011;8813;54.444;18.446;2023-03-13T13:19:54;37.42;;;34.22;;
17390;SDS011;8813;54.444;18.446;2023-03-13T13:25:30;41.20;;;37.20;;
17390;SDS011;8813;54.444;18.446;2023-03-13T13:28:22;40.00;;;36.23;;
17390;SDS011;8813;54.444;18.446;2023-03-13T13:30:53;36.50;;;32.90;;
17390;SDS011;8813;54.444;18.446;2023-03-13T13:33:34;38.93;;;35.17;;
17390;SDS011;8813;54.444;18.446;2023-03-13T13:38:52;42.78;;;38.30;;
17390;SDS011;8813;54.444;18.446;2023-03-13T13:41:36;45.33;;;40.58;;
17390;SDS011;8813;54.444;18.446;2023-03-13T13:46:56;46.50;;;41.50;;
17390;SDS011;8813;54.444;18.446;2023-03-13T13:49:34;44.65;;;40.00;;
17390;SDS011;8813;54.444;18.446;2023-03-13T13:52:16;40.08;;;36.05;;
17390;SDS011;8813;54.444;18.446;2023-03-13T13:58:11;37.42;;;34.03;;
17390;SDS011;8813;54.444;18.446;2023-03-13T14:00:40;39.40;;;35.80;;
17390;SDS011;8813;54.444;18.446;2023-03-13T14:03:15;33.75;;;31.10;;
17390;SDS011;8813;54.444;18.446;2023-03-13T14:05:45;31.30;;;28.90;;
17390;SDS011;8813;54.444;18.446;2023-03-13T14:08:15;33.53;;;30.83;;
17390;SDS011;8813;54.444;18.446;2023-03-13T14:10:47;31.55;;;29.02;;
17390;SDS011;8813;54.444;18.446;2023-03-13T14:13:17;33.85;;;31.13;;
17390;SDS011;8813;54.444;18.446;2023-03-13T14:15:46;34.53;;;31.17;;
17390;SDS011;8813;54.444;18.446;2023-03-13T14:18:15;30.40;;;28.13;;
17390;SDS011;8813;54.444;18.446;2023-03-13T14:20:53;31.55;;;29.23;;
17390;SDS011;8813;54.444;18.446;2023-03-13T14:23:29;28.70;;;26.60;;
17390;SDS011;8813;54.444;18.446;2023-03-13T14:25:58;29.65;;;27.55;;
17390;SDS011;8813;54.444;18.446;2023-03-13T14:28:36;28.45;;;26.35;;
17390;SDS011;8813;54.444;18.446;2023-03-13T14:31:04;28.48;;;26.48;;
17390;SDS011;8813;54.444;18.446;2023-03-13T14:33:31;29.23;;;27.13;;
17390;SDS011;8813;54.444;18.446;2023-03-13T14:36:01;27.00;;;25.15;;
17390;SDS011;8813;54.444;18.446;2023-03-13T14:38:28;27.73;;;25.67;;
17390;SDS011;8813;54.444;18.446;2023-03-13T14:40:55;22.33;;;21.10;;
17390;SDS011;8813;54.444;18.446;2023-03-13T14:43:24;28.58;;;26.55;;
17390;SDS011;8813;54.444;18.446;2023-03-13T14:45:56;27.27;;;25.05;;
17390;SDS011;8813;54.444;18.446;2023-03-13T14:48:26;29.25;;;26.90;;
17390;SDS011;8813;54.444;18.446;2023-03-13T14:51:02;26.00;;;24.30;;
17390;SDS011;8813;54.444;18.446;2023-03-13T14:53:34;29.10;;;26.85;;